Sign-in with your pilot id or email, or register

ICAO: DAAG Name / Country: Dar-El-Beida / Algeria
Latitude: 36.691 Longitude: 3.21541
Total Arrivals:
Strict Standards: Non-static method AirportData::getarrflights() should not be called statically, assuming $this from incompatible context in /var/www/customers/vh-7192/web/home/phpvms/core/templates/airport_info.tpl on line 18
1
Total Departures:
Strict Standards: Non-static method AirportData::getdeptflights() should not be called statically, assuming $this from incompatible context in /var/www/customers/vh-7192/web/home/phpvms/core/templates/airport_info.tpl on line 21
1
Latest Arrival: MTA5PM (GMMN-DAAG) Tibor Berces Latest Departure: MTA5PM (DAAG-DTTA) Tibor Berces
Metar: DAAG 172230Z 34001KT 8000 FEW020 FEW026CB SCT086 24/19 Q1013
More info

Charts for DAAG


NOTAM


Warning: file_get_contents(http://api.vateud.net/notams/DAAG.json): failed to open stream: Redirection limit reached, aborting in /var/www/customers/vh-7192/web/home/phpvms/core/common/NOTAMSData.class.php on line 18

Warning: Invalid argument supplied for foreach() in /var/www/customers/vh-7192/web/home/phpvms/core/common/NOTAMSData.class.php on line 22

Dar-El-Beida